sensor_id;sensor_type;location;lat;lon;timestamp;P1;durP1;ratioP1;P2;durP2;ratioP2
31336;SDS011;22846;42.654;23.314;2023-06-05T00:00:27;4.13;;;3.30;;
31336;SDS011;22846;42.654;23.314;2023-06-05T00:02:53;3.67;;;2.97;;
31336;SDS011;22846;42.654;23.314;2023-06-05T00:05:18;4.68;;;3.45;;
31336;SDS011;22846;42.654;23.314;2023-06-05T00:07:44;4.25;;;3.47;;
31336;SDS011;22846;42.654;23.314;2023-06-05T00:10:09;6.22;;;3.20;;
31336;SDS011;22846;42.654;23.314;2023-06-05T00:12:35;3.45;;;3.05;;
31336;SDS011;22846;42.654;23.314;2023-06-05T00:15:01;3.78;;;2.92;;
31336;SDS011;22846;42.654;23.314;2023-06-05T00:17:27;3.78;;;3.10;;
31336;SDS011;22846;42.654;23.314;2023-06-05T00:19:55;3.63;;;3.03;;
31336;SDS011;22846;42.654;23.314;2023-06-05T00:22:23;3.47;;;2.90;;
31336;SDS011;22846;42.654;23.314;2023-06-05T00:24:49;3.22;;;2.92;;
31336;SDS011;22846;42.654;23.314;2023-06-05T00:27:15;3.28;;;2.90;;
31336;SDS011;22846;42.654;23.314;2023-06-05T00:29:40;3.03;;;2.58;;
31336;SDS011;22846;42.654;23.314;2023-06-05T00:32:06;3.15;;;2.80;;
31336;SDS011;22846;42.654;23.314;2023-06-05T00:34:31;3.47;;;2.80;;
31336;SDS011;22846;42.654;23.314;2023-06-05T00:36:57;3.08;;;2.55;;
31336;SDS011;22846;42.654;23.314;2023-06-05T00:39:23;3.42;;;3.13;;
31336;SDS011;22846;42.654;23.314;2023-06-05T00:41:48;4.45;;;3.10;;
31336;SDS011;22846;42.654;23.314;2023-06-05T00:44:14;3.55;;;2.75;;
31336;SDS011;22846;42.654;23.314;2023-06-05T00:46:39;2.80;;;2.50;;
31336;SDS011;22846;42.654;23.314;2023-06-05T00:49:06;3.92;;;2.65;;
31336;SDS011;22846;42.654;23.314;2023-06-05T00:51:33;2.92;;;2.63;;
31336;SDS011;22846;42.654;23.314;2023-06-05T00:53:58;2.85;;;2.55;;
31336;SDS011;22846;42.654;23.314;2023-06-05T00:56:24;2.75;;;2.53;;
31336;SDS011;22846;42.654;23.314;2023-06-05T00:58:50;2.90;;;2.55;;
31336;SDS011;22846;42.654;23.314;2023-06-05T01:01:17;3.30;;;2.65;;
31336;SDS011;22846;42.654;23.314;2023-06-05T01:03:45;3.25;;;2.60;;
31336;SDS011;22846;42.654;23.314;2023-06-05T01:06:12;3.00;;;2.70;;
31336;SDS011;22846;42.654;23.314;2023-06-05T01:08:38;2.72;;;2.40;;
31336;SDS011;22846;42.654;23.314;2023-06-05T01:11:13;2.92;;;2.60;;
31336;SDS011;22846;42.654;23.314;2023-06-05T01:13:46;2.90;;;2.60;;
31336;SDS011;22846;42.654;23.314;2023-06-05T01:16:20;2.67;;;2.45;;
31336;SDS011;22846;42.654;23.314;2023-06-05T01:18:56;2.85;;;2.65;;
31336;SDS011;22846;42.654;23.314;2023-06-05T01:21:28;4.28;;;2.80;;
31336;SDS011;22846;42.654;23.314;2023-06-05T01:23:57;2.85;;;2.50;;
31336;SDS011;22846;42.654;23.314;2023-06-05T01:26:28;2.88;;;2.40;;
31336;SDS011;22846;42.654;23.314;2023-06-05T01:29:01;2.75;;;2.40;;
31336;SDS011;22846;42.654;23.314;2023-06-05T01:31:31;2.83;;;2.45;;
31336;SDS011;22846;42.654;23.314;2023-06-05T01:34:02;3.17;;;2.40;;
31336;SDS011;22846;42.654;23.314;2023-06-05T01:36:33;3.30;;;2.58;;
31336;SDS011;22846;42.654;23.314;2023-06-05T01:38:59;3.03;;;2.65;;
31336;SDS011;22846;42.654;23.314;2023-06-05T01:41:25;2.45;;;2.22;;
31336;SDS011;22846;42.654;23.314;2023-06-05T01:43:51;2.60;;;2.40;;
31336;SDS011;22846;42.654;23.314;2023-06-05T01:46:18;2.85;;;2.55;;
31336;SDS011;22846;42.654;23.314;2023-06-05T01:48:45;2.63;;;2.35;;
31336;SDS011;22846;42.654;23.314;2023-06-05T01:51:12;4.45;;;2.40;;
31336;SDS011;22846;42.654;23.314;2023-06-05T01:53:37;2.55;;;2.35;;
31336;SDS011;22846;42.654;23.314;2023-06-05T01:56:03;2.70;;;2.20;;
31336;SDS011;22846;42.654;23.314;2023-06-05T01:58:29;3.65;;;2.65;;
31336;SDS011;22846;42.654;23.314;2023-06-05T02:00:54;2.20;;;2.00;;
31336;SDS011;22846;42.654;23.314;2023-06-05T02:03:23;2.50;;;2.30;;
31336;SDS011;22846;42.654;23.314;2023-06-05T02:05:50;3.13;;;2.40;;
31336;SDS011;22846;42.654;23.314;2023-06-05T02:08:19;2.80;;;2.47;;
31336;SDS011;22846;42.654;23.314;2023-06-05T02:10:50;2.33;;;2.13;;
31336;SDS011;22846;42.654;23.314;2023-06-05T02:13:18;3.58;;;2.50;;
31336;SDS011;22846;42.654;23.314;2023-06-05T02:15:49;2.57;;;2.37;;
31336;SDS011;22846;42.654;23.314;2023-06-05T02:18:21;2.50;;;2.30;;
31336;SDS011;22846;42.654;23.314;2023-06-05T02:20:52;2.78;;;2.55;;
31336;SDS011;22846;42.654;23.314;2023-06-05T02:23:19;2.22;;;1.98;;
31336;SDS011;22846;42.654;23.314;2023-06-05T02:25:44;2.25;;;2.05;;
31336;SDS011;22846;42.654;23.314;2023-06-05T02:28:10;3.40;;;2.60;;
31336;SDS011;22846;42.654;23.314;2023-06-05T02:30:35;2.70;;;2.20;;
31336;SDS011;22846;42.654;23.314;2023-06-05T02:33:02;2.50;;;2.22;;
31336;SDS011;22846;42.654;23.314;2023-06-05T02:35:28;3.50;;;2.40;;
31336;SDS011;22846;42.654;23.314;2023-06-05T02:37:54;2.42;;;2.03;;
31336;SDS011;22846;42.654;23.314;2023-06-05T02:40:21;2.85;;;2.20;;
31336;SDS011;22846;42.654;23.314;2023-06-05T02:42:47;2.83;;;2.20;;
31336;SDS011;22846;42.654;23.314;2023-06-05T02:45:12;2.38;;;2.15;;
31336;SDS011;22846;42.654;23.314;2023-06-05T02:47:38;2.20;;;2.00;;
31336;SDS011;22846;42.654;23.314;2023-06-05T02:50:04;2.08;;;1.88;;
31336;SDS011;22846;42.654;23.314;2023-06-05T02:52:31;2.47;;;2.28;;
31336;SDS011;22846;42.654;23.314;2023-06-05T02:55:00;2.75;;;2.50;;
31336;SDS011;22846;42.654;23.314;2023-06-05T02:57:30;2.30;;;2.10;;
31336;SDS011;22846;42.654;23.314;2023-06-05T02:59:56;2.78;;;2.15;;
31336;SDS011;22846;42.654;23.314;2023-06-05T03:02:21;2.70;;;2.30;;
31336;SDS011;22846;42.654;23.314;2023-06-05T03:04:47;2.80;;;2.30;;
31336;SDS011;22846;42.654;23.314;2023-06-05T03:07:18;2.58;;;2.38;;
31336;SDS011;22846;42.654;23.314;2023-06-05T03:09:44;2.75;;;2.30;;
31336;SDS011;22846;42.654;23.314;2023-06-05T03:12:11;2.63;;;2.00;;
31336;SDS011;22846;42.654;23.314;2023-06-05T03:14:36;2.17;;;1.98;;
31336;SDS011;22846;42.654;23.314;2023-06-05T03:17:02;2.25;;;2.05;;
31336;SDS011;22846;42.654;23.314;2023-06-05T03:19:28;2.10;;;1.83;;
31336;SDS011;22846;42.654;23.314;2023-06-05T03:21:54;2.20;;;2.00;;
31336;SDS011;22846;42.654;23.314;2023-06-05T03:24:19;2.22;;;2.03;;
31336;SDS011;22846;42.654;23.314;2023-06-05T03:26:45;2.45;;;2.22;;
31336;SDS011;22846;42.654;23.314;2023-06-05T03:29:11;2.10;;;1.90;;
31336;SDS011;22846;42.654;23.314;2023-06-05T03:31:38;2.40;;;2.20;;
31336;SDS011;22846;42.654;23.314;2023-06-05T03:34:03;2.38;;;2.17;;
31336;SDS011;22846;42.654;23.314;2023-06-05T03:36:31;2.30;;;2.10;;
31336;SDS011;22846;42.654;23.314;2023-06-05T03:38:59;2.47;;;2.15;;
31336;SDS011;22846;42.654;23.314;2023-06-05T03:41:25;2.45;;;2.25;;
31336;SDS011;22846;42.654;23.314;2023-06-05T03:43:51;2.22;;;2.03;;
31336;SDS011;22846;42.654;23.314;2023-06-05T03:46:16;2.13;;;1.92;;
31336;SDS011;22846;42.654;23.314;2023-06-05T03:48:47;4.80;;;2.60;;
31336;SDS011;22846;42.654;23.314;2023-06-05T03:51:14;2.40;;;2.20;;
31336;SDS011;22846;42.654;23.314;2023-06-05T03:53:43;4.57;;;1.92;;
31336;SDS011;22846;42.654;23.314;2023-06-05T03:56:20;2.63;;;2.20;;
31336;SDS011;22846;42.654;23.314;2023-06-05T03:58:46;2.70;;;2.38;;
31336;SDS011;22846;42.654;23.314;2023-06-05T04:01:13;2.53;;;1.90;;
31336;SDS011;22846;42.654;23.314;2023-06-05T04:03:39;2.35;;;1.95;;
31336;SDS011;22846;42.654;23.314;2023-06-05T04:06:05;2.50;;;2.30;;
31336;SDS011;22846;42.654;23.314;2023-06-05T04:08:30;4.00;;;2.50;;
31336;SDS011;22846;42.654;23.314;2023-06-05T04:10:57;2.53;;;2.33;;
31336;SDS011;22846;42.654;23.314;2023-06-05T04:13:23;2.92;;;2.28;;
31336;SDS011;22846;42.654;23.314;2023-06-05T04:15:48;2.58;;;2.38;;
31336;SDS011;22846;42.654;23.314;2023-06-05T04:18:14;2.80;;;2.05;;
31336;SDS011;22846;42.654;23.314;2023-06-05T04:20:40;2.47;;;2.28;;
31336;SDS011;22846;42.654;23.314;2023-06-05T04:23:05;4.68;;;3.47;;
31336;SDS011;22846;42.654;23.314;2023-06-05T04:25:31;3.60;;;3.30;;
31336;SDS011;22846;42.654;23.314;2023-06-05T04:27:56;3.35;;;2.90;;
31336;SDS011;22846;42.654;23.314;2023-06-05T04:30:22;3.60;;;3.30;;
31336;SDS011;22846;42.654;23.314;2023-06-05T04:32:48;3.95;;;3.55;;
31336;SDS011;22846;42.654;23.314;2023-06-05T04:35:19;4.75;;;3.78;;
31336;SDS011;22846;42.654;23.314;2023-06-05T04:37:45;5.40;;;3.85;;
31336;SDS011;22846;42.654;23.314;2023-06-05T04:40:11;4.15;;;3.30;;
31336;SDS011;22846;42.654;23.314;2023-06-05T04:42:37;5.93;;;3.63;;
31336;SDS011;22846;42.654;23.314;2023-06-05T04:45:05;6.28;;;3.75;;
31336;SDS011;22846;42.654;23.314;2023-06-05T04:47:33;3.42;;;3.13;;
31336;SDS011;22846;42.654;23.314;2023-06-05T04:49:58;4.68;;;3.72;;
31336;SDS011;22846;42.654;23.314;2023-06-05T04:52:25;3.53;;;2.58;;
31336;SDS011;22846;42.654;23.314;2023-06-05T04:54:54;2.60;;;2.40;;
31336;SDS011;22846;42.654;23.314;2023-06-05T04:57:22;2.22;;;1.80;;
31336;SDS011;22846;42.654;23.314;2023-06-05T04:59:51;1.98;;;1.77;;
31336;SDS011;22846;42.654;23.314;2023-06-05T05:02:17;2.13;;;1.92;;
31336;SDS011;22846;42.654;23.314;2023-06-05T05:04:42;1.80;;;1.65;;
31336;SDS011;22846;42.654;23.314;2023-06-05T05:07:08;3.63;;;2.17;;
31336;SDS011;22846;42.654;23.314;2023-06-05T05:09:39;3.75;;;2.08;;
31336;SDS011;22846;42.654;23.314;2023-06-05T05:12:05;3.90;;;2.30;;
31336;SDS011;22846;42.654;23.314;2023-06-05T05:14:32;7.03;;;2.63;;
31336;SDS011;22846;42.654;23.314;2023-06-05T05:16:57;5.72;;;2.55;;
31336;SDS011;22846;42.654;23.314;2023-06-05T05:19:23;9.50;;;2.80;;
31336;SDS011;22846;42.654;23.314;2023-06-05T05:21:48;5.95;;;3.10;;
31336;SDS011;22846;42.654;23.314;2023-06-05T05:24:14;4.40;;;2.95;;
31336;SDS011;22846;42.654;23.314;2023-06-05T05:26:40;7.30;;;2.78;;
31336;SDS011;22846;42.654;23.314;2023-06-05T05:29:06;7.53;;;3.33;;
31336;SDS011;22846;42.654;23.314;2023-06-05T05:31:31;13.70;;;7.90;;
31336;SDS011;22846;42.654;23.314;2023-06-05T05:33:57;18.70;;;11.00;;
31336;SDS011;22846;42.654;23.314;2023-06-05T05:36:23;19.27;;;10.05;;
31336;SDS011;22846;42.654;23.314;2023-06-05T05:38:52;12.80;;;7.22;;
31336;SDS011;22846;42.654;23.314;2023-06-05T05:41:18;11.82;;;5.60;;
31336;SDS011;22846;42.654;23.314;2023-06-05T05:43:43;8.30;;;5.10;;
31336;SDS011;22846;42.654;23.314;2023-06-05T05:46:09;7.90;;;5.05;;
31336;SDS011;22846;42.654;23.314;2023-06-05T05:48:35;11.70;;;5.40;;
31336;SDS011;22846;42.654;23.314;2023-06-05T05:51:01;8.43;;;5.28;;
31336;SDS011;22846;42.654;23.314;2023-06-05T05:53:26;7.95;;;4.70;;
31336;SDS011;22846;42.654;23.314;2023-06-05T05:55:52;8.27;;;4.63;;
31336;SDS011;22846;42.654;23.314;2023-06-05T05:58:18;11.80;;;5.00;;
31336;SDS011;22846;42.654;23.314;2023-06-05T06:00:44;8.55;;;4.20;;
31336;SDS011;22846;42.654;23.314;2023-06-05T06:03:10;7.80;;;4.88;;
31336;SDS011;22846;42.654;23.314;2023-06-05T06:05:36;5.70;;;4.22;;
31336;SDS011;22846;42.654;23.314;2023-06-05T06:08:02;7.07;;;4.18;;
31336;SDS011;22846;42.654;23.314;2023-06-05T06:10:28;4.50;;;3.70;;
31336;SDS011;22846;42.654;23.314;2023-06-05T06:12:55;6.78;;;4.03;;
31336;SDS011;22846;42.654;23.314;2023-06-05T06:15:21;7.80;;;4.00;;
31336;SDS011;22846;42.654;23.314;2023-06-05T06:17:47;5.93;;;3.70;;
31336;SDS011;22846;42.654;23.314;2023-06-05T06:20:12;5.80;;;4.13;;
31336;SDS011;22846;42.654;23.314;2023-06-05T06:22:39;4.40;;;4.00;;
31336;SDS011;22846;42.654;23.314;2023-06-05T06:25:05;5.70;;;3.85;;
31336;SDS011;22846;42.654;23.314;2023-06-05T06:27:31;4.57;;;3.83;;
31336;SDS011;22846;42.654;23.314;2023-06-05T06:29:57;4.97;;;3.88;;
31336;SDS011;22846;42.654;23.314;2023-06-05T06:32:23;6.22;;;4.10;;
31336;SDS011;22846;42.654;23.314;2023-06-05T06:34:50;5.18;;;4.18;;
31336;SDS011;22846;42.654;23.314;2023-06-05T06:37:17;5.30;;;3.85;;
31336;SDS011;22846;42.654;23.314;2023-06-05T06:39:43;5.43;;;3.67;;
31336;SDS011;22846;42.654;23.314;2023-06-05T06:42:09;4.13;;;3.58;;
31336;SDS011;22846;42.654;23.314;2023-06-05T06:44:35;4.57;;;4.03;;
31336;SDS011;22846;42.654;23.314;2023-06-05T06:47:02;6.13;;;4.18;;
31336;SDS011;22846;42.654;23.314;2023-06-05T06:49:27;5.07;;;3.60;;
31336;SDS011;22846;42.654;23.314;2023-06-05T06:51:53;5.90;;;3.90;;
31336;SDS011;22846;42.654;23.314;2023-06-05T06:54:18;4.68;;;3.40;;
31336;SDS011;22846;42.654;23.314;2023-06-05T06:56:44;7.03;;;3.63;;
31336;SDS011;22846;42.654;23.314;2023-06-05T06:59:12;4.78;;;3.95;;
31336;SDS011;22846;42.654;23.314;2023-06-05T07:01:42;4.82;;;3.75;;
31336;SDS011;22846;42.654;23.314;2023-06-05T07:04:11;4.72;;;3.65;;
31336;SDS011;22846;42.654;23.314;2023-06-05T07:06:37;5.95;;;3.40;;
31336;SDS011;22846;42.654;23.314;2023-06-05T07:09:03;4.82;;;3.60;;
31336;SDS011;22846;42.654;23.314;2023-06-05T07:11:28;4.13;;;3.72;;
31336;SDS011;22846;42.654;23.314;2023-06-05T07:13:54;5.18;;;3.83;;
31336;SDS011;22846;42.654;23.314;2023-06-05T07:16:19;4.75;;;3.80;;
31336;SDS011;22846;42.654;23.314;2023-06-05T07:18:45;5.13;;;3.90;;
31336;SDS011;22846;42.654;23.314;2023-06-05T07:21:10;5.28;;;3.80;;
31336;SDS011;22846;42.654;23.314;2023-06-05T07:23:37;4.70;;;3.28;;
31336;SDS011;22846;42.654;23.314;2023-06-05T07:26:04;3.90;;;3.20;;
31336;SDS011;22846;42.654;23.314;2023-06-05T07:28:29;4.85;;;4.05;;
31336;SDS011;22846;42.654;23.314;2023-06-05T07:30:55;3.70;;;3.25;;
31336;SDS011;22846;42.654;23.314;2023-06-05T07:33:21;4.47;;;3.58;;
31336;SDS011;22846;42.654;23.314;2023-06-05T07:35:46;4.07;;;3.67;;
31336;SDS011;22846;42.654;23.314;2023-06-05T07:38:13;6.15;;;3.80;;
31336;SDS011;22846;42.654;23.314;2023-06-05T07:40:39;3.95;;;3.45;;
31336;SDS011;22846;42.654;23.314;2023-06-05T07:43:04;4.32;;;3.88;;
31336;SDS011;22846;42.654;23.314;2023-06-05T07:45:30;4.28;;;3.58;;
31336;SDS011;22846;42.654;23.314;2023-06-05T07:47:56;4.30;;;3.45;;
31336;SDS011;22846;42.654;23.314;2023-06-05T07:50:21;4.07;;;3.67;;
31336;SDS011;22846;42.654;23.314;2023-06-05T07:52:47;3.97;;;3.38;;
31336;SDS011;22846;42.654;23.314;2023-06-05T07:55:12;4.47;;;3.55;;
31336;SDS011;22846;42.654;23.314;2023-06-05T07:57:38;5.15;;;3.72;;
31336;SDS011;22846;42.654;23.314;2023-06-05T08:00:03;5.32;;;3.80;;
31336;SDS011;22846;42.654;23.314;2023-06-05T08:02:35;4.93;;;3.80;;
31336;SDS011;22846;42.654;23.314;2023-06-05T08:05:02;4.60;;;3.80;;
31336;SDS011;22846;42.654;23.314;2023-06-05T08:07:27;4.35;;;3.75;;
31336;SDS011;22846;42.654;23.314;2023-06-05T08:09:53;4.82;;;4.00;;
31336;SDS011;22846;42.654;23.314;2023-06-05T08:12:18;5.13;;;3.70;;
31336;SDS011;22846;42.654;23.314;2023-06-05T08:14:44;4.50;;;3.55;;
31336;SDS011;22846;42.654;23.314;2023-06-05T08:17:09;5.05;;;4.05;;
31336;SDS011;22846;42.654;23.314;2023-06-05T08:19:35;4.95;;;4.13;;
31336;SDS011;22846;42.654;23.314;2023-06-05T08:22:01;4.72;;;3.58;;
31336;SDS011;22846;42.654;23.314;2023-06-05T08:24:26;4.50;;;3.60;;
31336;SDS011;22846;42.654;23.314;2023-06-05T08:26:54;3.75;;;3.35;;
31336;SDS011;22846;42.654;23.314;2023-06-05T08:29:19;4.78;;;4.05;;
31336;SDS011;22846;42.654;23.314;2023-06-05T08:31:45;4.22;;;3.83;;
31336;SDS011;22846;42.654;23.314;2023-06-05T08:34:10;4.00;;;3.60;;
31336;SDS011;22846;42.654;23.314;2023-06-05T08:36:36;4.93;;;3.60;;
31336;SDS011;22846;42.654;23.314;2023-06-05T08:39:01;5.45;;;3.70;;
31336;SDS011;22846;42.654;23.314;2023-06-05T08:41:29;4.68;;;3.85;;
31336;SDS011;22846;42.654;23.314;2023-06-05T08:43:57;3.88;;;3.50;;
31336;SDS011;22846;42.654;23.314;2023-06-05T08:46:22;4.15;;;3.35;;
31336;SDS011;22846;42.654;23.314;2023-06-05T08:48:52;4.15;;;3.65;;
31336;SDS011;22846;42.654;23.314;2023-06-05T08:51:20;6.22;;;3.67;;
31336;SDS011;22846;42.654;23.314;2023-06-05T08:53:54;4.45;;;3.60;;
31336;SDS011;22846;42.654;23.314;2023-06-05T08:56:22;4.72;;;3.47;;
31336;SDS011;22846;42.654;23.314;2023-06-05T08:58:49;4.15;;;3.70;;
31336;SDS011;22846;42.654;23.314;2023-06-05T09:01:15;4.18;;;3.70;;
31336;SDS011;22846;42.654;23.314;2023-06-05T09:03:41;4.82;;;3.90;;
31336;SDS011;22846;42.654;23.314;2023-06-05T09:06:09;4.47;;;3.80;;
31336;SDS011;22846;42.654;23.314;2023-06-05T09:08:35;3.95;;;3.40;;
31336;SDS011;22846;42.654;23.314;2023-06-05T09:13:59;4.18;;;3.63;;
31336;SDS011;22846;42.654;23.314;2023-06-05T09:16:34;5.18;;;4.32;;
31336;SDS011;22846;42.654;23.314;2023-06-05T09:19:02;4.40;;;3.80;;
31336;SDS011;22846;42.654;23.314;2023-06-05T09:21:29;4.53;;;3.50;;
31336;SDS011;22846;42.654;23.314;2023-06-05T09:26:48;4.82;;;4.05;;
31336;SDS011;22846;42.654;23.314;2023-06-05T09:29:19;4.10;;;3.70;;
31336;SDS011;22846;42.654;23.314;2023-06-05T09:31:45;4.28;;;3.38;;
31336;SDS011;22846;42.654;23.314;2023-06-05T09:34:12;5.38;;;3.25;;
31336;SDS011;22846;42.654;23.314;2023-06-05T09:36:45;4.20;;;3.63;;
31336;SDS011;22846;42.654;23.314;2023-06-05T09:39:14;4.07;;;3.38;;
31336;SDS011;22846;42.654;23.314;2023-06-05T09:41:41;5.05;;;4.07;;
31336;SDS011;22846;42.654;23.314;2023-06-05T09:44:07;4.65;;;3.80;;
31336;SDS011;22846;42.654;23.314;2023-06-05T09:46:34;3.92;;;3.53;;
31336;SDS011;22846;42.654;23.314;2023-06-05T09:48:59;4.20;;;3.60;;
31336;SDS011;22846;42.654;23.314;2023-06-05T09:51:25;3.47;;;3.17;;
31336;SDS011;22846;42.654;23.314;2023-06-05T09:53:50;4.78;;;3.78;;
31336;SDS011;22846;42.654;23.314;2023-06-05T09:56:17;4.45;;;3.65;;
31336;SDS011;22846;42.654;23.314;2023-06-05T09:58:45;3.75;;;3.33;;
31336;SDS011;22846;42.654;23.314;2023-06-05T10:01:13;4.05;;;3.33;;
31336;SDS011;22846;42.654;23.314;2023-06-05T10:03:42;4.63;;;3.90;;
31336;SDS011;22846;42.654;23.314;2023-06-05T10:06:09;3.97;;;3.47;;
31336;SDS011;22846;42.654;23.314;2023-06-05T10:08:35;4.43;;;3.80;;
31336;SDS011;22846;42.654;23.314;2023-06-05T10:11:01;5.65;;;3.47;;
31336;SDS011;22846;42.654;23.314;2023-06-05T10:13:27;4.32;;;3.58;;
31336;SDS011;22846;42.654;23.314;2023-06-05T10:15:53;4.22;;;3.63;;
31336;SDS011;22846;42.654;23.314;2023-06-05T10:18:21;5.22;;;3.83;;
31336;SDS011;22846;42.654;23.314;2023-06-05T10:20:47;4.38;;;3.45;;
31336;SDS011;22846;42.654;23.314;2023-06-05T10:23:15;4.07;;;3.60;;
31336;SDS011;22846;42.654;23.314;2023-06-05T10:25:42;4.43;;;3.47;;
31336;SDS011;22846;42.654;23.314;2023-06-05T10:36:44;3.90;;;3.40;;
31336;SDS011;22846;42.654;23.314;2023-06-05T10:39:28;3.83;;;3.38;;
31336;SDS011;22846;42.654;23.314;2023-06-05T10:41:56;3.58;;;3.20;;
31336;SDS011;22846;42.654;23.314;2023-06-05T10:44:39;3.45;;;2.85;;
31336;SDS011;22846;42.654;23.314;2023-06-05T10:52:40;3.58;;;3.20;;
31336;SDS011;22846;42.654;23.314;2023-06-05T10:55:06;3.30;;;3.00;;
31336;SDS011;22846;42.654;23.314;2023-06-05T11:00:25;3.88;;;3.17;;
31336;SDS011;22846;42.654;23.314;2023-06-05T11:02:55;4.20;;;3.53;;
31336;SDS011;22846;42.654;23.314;2023-06-05T11:05:21;3.17;;;2.88;;
31336;SDS011;22846;42.654;23.314;2023-06-05T11:07:46;3.75;;;3.35;;
31336;SDS011;22846;42.654;23.314;2023-06-05T11:15:14;3.27;;;2.97;;
31336;SDS011;22846;42.654;23.314;2023-06-05T11:17:41;4.30;;;3.53;;
31336;SDS011;22846;42.654;23.314;2023-06-05T11:20:08;4.22;;;3.47;;
31336;SDS011;22846;42.654;23.314;2023-06-05T11:23:06;4.40;;;3.40;;
31336;SDS011;22846;42.654;23.314;2023-06-05T11:25:32;3.85;;;3.45;;
31336;SDS011;22846;42.654;23.314;2023-06-05T11:28:05;3.53;;;2.95;;
31336;SDS011;22846;42.654;23.314;2023-06-05T11:30:40;3.72;;;3.33;;
31336;SDS011;22846;42.654;23.314;2023-06-05T11:33:08;3.55;;;3.25;;
31336;SDS011;22846;42.654;23.314;2023-06-05T11:35:40;3.63;;;3.17;;
31336;SDS011;22846;42.654;23.314;2023-06-05T11:38:14;3.83;;;3.40;;
31336;SDS011;22846;42.654;23.314;2023-06-05T11:40:44;3.75;;;3.10;;
31336;SDS011;22846;42.654;23.314;2023-06-05T11:43:13;3.60;;;3.17;;
31336;SDS011;22846;42.654;23.314;2023-06-05T11:45:40;3.60;;;3.30;;
31336;SDS011;22846;42.654;23.314;2023-06-05T11:48:13;3.50;;;3.00;;
31336;SDS011;22846;42.654;23.314;2023-06-05T11:50:40;3.75;;;3.45;;
31336;SDS011;22846;42.654;23.314;2023-06-05T11:53:18;4.97;;;3.58;;
31336;SDS011;22846;42.654;23.314;2023-06-05T11:55:43;3.60;;;3.30;;
31336;SDS011;22846;42.654;23.314;2023-06-05T11:58:30;3.90;;;3.20;;
31336;SDS011;22846;42.654;23.314;2023-06-05T12:01:30;3.50;;;3.05;;
31336;SDS011;22846;42.654;23.314;2023-06-05T12:04:06;3.95;;;3.22;;
31336;SDS011;22846;42.654;23.314;2023-06-05T12:06:33;3.60;;;3.22;;
31336;SDS011;22846;42.654;23.314;2023-06-05T12:09:06;3.70;;;3.40;;
31336;SDS011;22846;42.654;23.314;2023-06-05T12:11:34;3.58;;;3.00;;
31336;SDS011;22846;42.654;23.314;2023-06-05T12:14:00;3.70;;;3.15;;
31336;SDS011;22846;42.654;23.314;2023-06-05T12:16:35;4.82;;;3.50;;
31336;SDS011;22846;42.654;23.314;2023-06-05T12:19:11;3.50;;;3.20;;
31336;SDS011;22846;42.654;23.314;2023-06-05T12:21:38;3.60;;;3.30;;
31336;SDS011;22846;42.654;23.314;2023-06-05T12:24:04;3.53;;;3.10;;
31336;SDS011;22846;42.654;23.314;2023-06-05T12:26:47;3.70;;;3.08;;
31336;SDS011;22846;42.654;23.314;2023-06-05T12:29:20;3.22;;;2.92;;
31336;SDS011;22846;42.654;23.314;2023-06-05T12:31:47;4.28;;;3.10;;
31336;SDS011;22846;42.654;23.314;2023-06-05T12:34:12;3.55;;;3.20;;
31336;SDS011;22846;42.654;23.314;2023-06-05T12:36:40;3.60;;;3.15;;
31336;SDS011;22846;42.654;23.314;2023-06-05T12:39:06;3.95;;;3.42;;
31336;SDS011;22846;42.654;23.314;2023-06-05T12:41:35;3.30;;;2.90;;
31336;SDS011;22846;42.654;23.314;2023-06-05T12:44:01;4.63;;;3.30;;
31336;SDS011;22846;42.654;23.314;2023-06-05T12:46:30;3.60;;;3.30;;
31336;SDS011;22846;42.654;23.314;2023-06-05T12:48:56;2.85;;;2.55;;
31336;SDS011;22846;42.654;23.314;2023-06-05T12:51:23;3.65;;;3.00;;
31336;SDS011;22846;42.654;23.314;2023-06-05T12:53:51;3.63;;;3.10;;
31336;SDS011;22846;42.654;23.314;2023-06-05T12:56:16;4.28;;;3.30;;
31336;SDS011;22846;42.654;23.314;2023-06-05T12:58:42;3.45;;;2.97;;
31336;SDS011;22846;42.654;23.314;2023-06-05T13:01:07;3.70;;;3.28;;
31336;SDS011;22846;42.654;23.314;2023-06-05T13:03:33;3.33;;;3.03;;
31336;SDS011;22846;42.654;23.314;2023-06-05T13:05:59;3.10;;;2.80;;
31336;SDS011;22846;42.654;23.314;2023-06-05T13:08:25;4.32;;;3.63;;
31336;SDS011;22846;42.654;23.314;2023-06-05T13:10:50;3.70;;;2.90;;
31336;SDS011;22846;42.654;23.314;2023-06-05T13:13:16;3.13;;;2.58;;
31336;SDS011;22846;42.654;23.314;2023-06-05T13:15:41;3.67;;;2.80;;
31336;SDS011;22846;42.654;23.314;2023-06-05T13:18:07;2.92;;;2.65;;
31336;SDS011;22846;42.654;23.314;2023-06-05T13:20:34;3.15;;;2.72;;
31336;SDS011;22846;42.654;23.314;2023-06-05T13:23:00;3.22;;;2.92;;
31336;SDS011;22846;42.654;23.314;2023-06-05T13:25:25;3.30;;;2.90;;
31336;SDS011;22846;42.654;23.314;2023-06-05T13:27:51;3.20;;;2.90;;
31336;SDS011;22846;42.654;23.314;2023-06-05T13:30:16;3.65;;;2.85;;
31336;SDS011;22846;42.654;23.314;2023-06-05T13:32:42;3.13;;;2.78;;
31336;SDS011;22846;42.654;23.314;2023-06-05T13:35:09;3.05;;;2.67;;
31336;SDS011;22846;42.654;23.314;2023-06-05T13:37:38;4.15;;;3.08;;
31336;SDS011;22846;42.654;23.314;2023-06-05T13:40:05;3.83;;;3.08;;
31336;SDS011;22846;42.654;23.314;2023-06-05T13:42:32;3.65;;;2.75;;
31336;SDS011;22846;42.654;23.314;2023-06-05T13:44:58;3.35;;;2.83;;
31336;SDS011;22846;42.654;23.314;2023-06-05T13:47:23;3.15;;;2.65;;
31336;SDS011;22846;42.654;23.314;2023-06-05T13:49:48;3.53;;;2.95;;
31336;SDS011;22846;42.654;23.314;2023-06-05T13:52:14;2.92;;;2.58;;
31336;SDS011;22846;42.654;23.314;2023-06-05T13:54:39;3.92;;;2.90;;
31336;SDS011;22846;42.654;23.314;2023-06-05T13:57:06;3.03;;;2.70;;
31336;SDS011;22846;42.654;23.314;2023-06-05T13:59:32;3.22;;;2.92;;
31336;SDS011;22846;42.654;23.314;2023-06-05T14:01:57;3.30;;;2.65;;
31336;SDS011;22846;42.654;23.314;2023-06-05T14:04:23;2.92;;;2.70;;
31336;SDS011;22846;42.654;23.314;2023-06-05T14:06:48;2.97;;;2.67;;
31336;SDS011;22846;42.654;23.314;2023-06-05T14:09:14;3.05;;;2.60;;
31336;SDS011;22846;42.654;23.314;2023-06-05T14:11:39;2.60;;;2.40;;
31336;SDS011;22846;42.654;23.314;2023-06-05T14:14:09;4.35;;;2.92;;
31336;SDS011;22846;42.654;23.314;2023-06-05T14:16:35;3.92;;;2.88;;
31336;SDS011;22846;42.654;23.314;2023-06-05T14:19:01;18.65;;;4.50;;
31336;SDS011;22846;42.654;23.314;2023-06-05T14:21:26;12.57;;;5.40;;
31336;SDS011;22846;42.654;23.314;2023-06-05T14:23:51;7.32;;;4.43;;
31336;SDS011;22846;42.654;23.314;2023-06-05T14:26:17;17.60;;;5.45;;
31336;SDS011;22846;42.654;23.314;2023-06-05T14:28:42;9.02;;;6.32;;
31336;SDS011;22846;42.654;23.314;2023-06-05T14:31:07;9.38;;;5.50;;
31336;SDS011;22846;42.654;23.314;2023-06-05T14:33:33;8.65;;;5.60;;
31336;SDS011;22846;42.654;23.314;2023-06-05T14:35:58;7.38;;;6.13;;
31336;SDS011;22846;42.654;23.314;2023-06-05T14:38:24;10.48;;;6.22;;
31336;SDS011;22846;42.654;23.314;2023-06-05T14:40:49;8.90;;;6.30;;
31336;SDS011;22846;42.654;23.314;2023-06-05T14:43:16;13.10;;;6.88;;
31336;SDS011;22846;42.654;23.314;2023-06-05T14:45:41;11.27;;;6.20;;
31336;SDS011;22846;42.654;23.314;2023-06-05T14:48:07;10.93;;;6.57;;
31336;SDS011;22846;42.654;23.314;2023-06-05T14:50:35;11.23;;;6.97;;
31336;SDS011;22846;42.654;23.314;2023-06-05T14:53:01;10.48;;;6.65;;
31336;SDS011;22846;42.654;23.314;2023-06-05T14:55:27;11.05;;;6.50;;
31336;SDS011;22846;42.654;23.314;2023-06-05T14:57:52;11.18;;;6.32;;
31336;SDS011;22846;42.654;23.314;2023-06-05T15:00:17;10.15;;;7.40;;